.
WxDataArchive / Data Records for 2006-04-10
2006-04-09 April 2006 2006-04-11

Data Records for Monday, 10 April 2006

Time	Temp	Chill	HIndex	Humid	Dewpt	 Wind 	HiWind	WindDir	Rain 	Barom 
-----	----	-----	------	-----	-----	------	------	-------	-----	----- 
00:00	39.1	39.1	39.1	68	29.4	0	0	---	0.00	30.182 
00:05	38.8	38.8	38.8	68	29.2	0	0	---	0.00	30.182 
00:10	38.6	38.6	38.6	68	29.0	0	0	---	0.00	30.182 
00:15	38.3	38.3	38.3	69	29.0	0	0	---	0.00	30.182 
00:20	38.0	38.0	38.0	69	28.7	0	0	---	0.00	30.182 
00:25	37.9	37.9	37.9	70	29.0	0	0	---	0.00	30.182 
00:30	37.9	37.9	37.9	70	29.0	0	0	---	0.00	30.177 
00:35	37.8	37.8	37.8	70	28.9	0	0	---	0.00	30.177 
00:40	37.6	37.6	37.6	71	29.1	0	0	---	0.00	30.177 
00:45	37.5	37.5	37.5	71	29.0	0	0	---	0.00	30.174 
00:50	37.2	37.2	37.2	72	29.0	0	0	---	0.00	30.174 
00:55	37.2	37.2	37.2	72	29.0	0	0	---	0.00	30.174 
01:00	37.0	37.0	37.0	73	29.2	0	0	---	0.00	30.171 
01:05	37.0	37.0	37.0	73	29.2	0	0	---	0.00	30.171 
01:10	37.3	37.3	37.3	73	29.5	0	0	---	0.00	30.171 
01:15	38.0	38.0	38.0	71	29.4	0	0	---	0.00	30.169 
01:20	38.5	38.5	38.5	70	29.6	0	0	---	0.00	30.169 
01:25	38.6	38.6	38.6	69	29.3	0	0	---	0.00	30.169 
01:30	38.6	38.6	38.6	69	29.3	0	0	---	0.00	30.172 
01:35	38.5	38.5	38.5	69	29.2	0	0	---	0.00	30.172 
01:40	38.2	38.2	38.2	70	29.3	0	0	---	0.00	30.172 
01:45	38.0	38.0	38.0	70	29.1	0	0	---	0.00	30.176 
01:50	37.8	37.8	37.8	71	29.3	0	0	---	0.00	30.176 
01:55	37.6	37.6	37.6	71	29.1	0	0	---	0.00	30.176 
02:00	37.3	37.3	37.3	71	28.8	0	0	---	0.00	30.174 
02:05	37.0	37.0	37.0	72	28.8	0	0	---	0.00	30.174 
02:10	37.0	37.0	37.0	73	29.2	0	0	---	0.00	30.174 
02:15	37.0	37.0	37.0	73	29.2	0	0	---	0.00	30.168 
02:20	36.9	36.9	36.9	73	29.1	0	0	---	0.00	30.168 
02:25	36.8	36.8	36.8	74	29.3	0	0	---	0.00	30.168 
02:30	36.5	36.5	36.5	74	29.0	0	0	---	0.00	30.173 
02:35	36.2	36.2	36.2	74	28.7	0	0	---	0.00	30.173 
02:40	36.0	36.0	36.0	75	28.9	0	0	---	0.00	30.173 
02:45	35.9	35.9	35.9	76	29.1	0	0	---	0.00	30.175 
02:50	35.8	35.8	35.8	76	29.0	0	0	---	0.00	30.175 
02:55	35.8	35.8	35.8	77	29.3	0	0	---	0.00	30.175 
03:00	35.8	35.8	35.8	77	29.3	0	0	---	0.00	30.169 
03:05	35.6	35.6	35.6	77	29.1	0	0	---	0.00	30.169 
03:10	35.5	35.5	35.5	77	29.0	0	0	---	0.00	30.169 
03:15	35.3	35.3	35.3	77	28.8	0	0	---	0.00	30.165 
03:20	35.3	35.3	35.3	78	29.1	0	0	---	0.00	30.165 
03:25	35.2	35.2	35.2	78	29.0	0	0	---	0.00	30.165 
03:30	35.2	35.2	35.2	78	29.0	0	0	---	0.00	30.165 
03:35	35.0	35.0	35.0	79	29.2	0	0	---	0.00	30.165 
03:40	35.0	35.0	35.0	79	29.2	0	0	---	0.00	30.165 
03:45	35.0	35.0	35.0	79	29.2	0	0	---	0.00	30.166 
03:50	34.9	34.9	34.9	78	28.7	0	0	---	0.00	30.166 
03:55	34.7	34.7	34.7	78	28.6	0	0	---	0.00	30.166 
04:00	34.6	34.6	34.6	79	28.8	0	0	---	0.00	30.167 
04:05	34.3	34.3	34.3	79	28.5	0	0	---	0.00	30.167 
04:10	34.1	34.1	34.1	80	28.6	0	0	---	0.00	30.167 
04:15	34.1	34.1	34.1	79	28.3	0	0	---	0.00	30.178 
04:20	34.1	34.1	34.1	79	28.3	0	0	---	0.00	30.178 
04:25	34.1	34.1	34.1	79	28.3	0	0	---	0.00	30.178 
04:30	34.0	34.0	34.0	79	28.2	0	0	---	0.00	30.179 
04:35	34.0	34.0	34.0	79	28.2	0	0	---	0.00	30.179 
04:40	33.8	33.8	33.8	79	28.0	0	0	---	0.00	30.179 
04:45	33.8	33.8	33.8	79	28.0	0	0	---	0.00	30.181 
04:50	33.7	33.7	33.7	80	28.2	0	0	---	0.00	30.181 
04:55	33.7	33.7	33.7	80	28.2	0	0	---	0.00	30.181 
05:00	33.7	33.7	33.7	80	28.2	0	0	---	0.00	30.185 
05:05	33.5	33.5	33.5	80	28.0	0	0	---	0.00	30.185 
05:10	33.5	33.5	33.5	81	28.3	0	0	---	0.00	30.185 
05:15	33.4	33.4	33.4	83	28.8	0	0	---	0.00	30.192 
05:20	33.4	33.4	33.4	84	29.1	0	0	---	0.00	30.192 
05:25	33.2	33.2	33.2	85	29.2	0	0	---	0.00	30.192 
05:30	33.2	33.2	33.2	85	29.2	0	0	---	0.00	30.197 
05:35	33.1	33.1	33.1	85	29.1	0	0	---	0.00	30.197 
05:40	33.1	33.1	33.1	86	29.4	0	0	---	0.00	30.197 
05:45	33.1	33.1	33.1	87	29.7	0	0	---	0.00	30.203 
05:50	32.9	32.9	32.9	87	29.5	0	0	---	0.00	30.203 
05:55	32.8	32.8	32.8	87	29.4	0	0	---	0.00	30.203 
06:00	32.5	32.5	32.5	87	29.1	0	0	---	0.00	30.209 
06:05	32.4	32.4	32.4	87	29.0	0	0	---	0.00	30.209 
06:10	32.2	32.2	32.2	88	29.1	0	0	---	0.00	30.209 
06:15	32.2	32.2	32.2	88	29.1	0	0	---	0.00	30.212 
06:20	32.1	32.1	32.1	88	29.0	0	0	---	0.00	30.212 
06:25	31.9	31.9	31.9	89	29.0	0	0	---	0.00	30.212 
06:30	31.9	31.9	31.9	89	29.0	0	0	---	0.00	30.216 
06:35	31.9	31.9	31.9	89	29.0	0	0	---	0.00	30.216 
06:40	32.1	32.1	32.1	90	29.5	0	0	---	0.00	30.216 
06:45	31.9	31.9	31.9	89	29.0	0	0	---	0.00	30.229 
06:50	31.9	31.9	31.9	90	29.3	0	0	---	0.00	30.229 
06:55	31.9	31.9	31.9	90	29.3	0	0	---	0.00	30.229 
07:00	31.8	31.8	31.8	90	29.2	0	0	---	0.00	30.234 
07:05	31.9	31.9	31.9	90	29.3	0	0	---	0.00	30.234 
07:10	31.9	31.9	31.9	90	29.3	0	0	---	0.00	30.234 
07:15	31.8	31.8	31.8	90	29.2	0	0	---	0.00	30.242 
07:20	31.9	31.9	31.9	90	29.3	0	0	---	0.00	30.242 
07:25	31.9	31.9	31.9	91	29.6	0	0	---	0.00	30.242 
07:30	32.1	32.1	32.1	91	29.8	0	0	---	0.00	30.247 
07:35	32.4	32.4	32.4	90	29.8	0	0	---	0.00	30.247 
07:40	32.5	32.5	32.5	90	29.9	0	0	---	0.00	30.247 
07:45	32.8	32.8	32.8	89	29.9	0	0	---	0.00	30.243 
07:50	33.2	33.2	33.2	88	30.0	0	0	---	0.00	30.243 
07:55	33.8	33.8	33.8	87	30.3	0	0	---	0.00	30.243 
08:00	34.6	34.6	34.6	84	30.3	0	0	---	0.00	30.237 
08:05	35.5	35.5	35.5	80	30.0	0	1	270	0.00	30.237 
08:10	36.6	36.6	36.6	79	30.7	0	2	270	0.00	30.237 
08:15	37.9	37.9	37.9	76	31.0	1	2	270	0.00	30.243 
08:20	39.1	39.1	39.1	75	31.9	1	1	270	0.00	30.243 
08:25	40.1	40.1	40.1	73	32.2	1	2	270	0.00	30.243 
08:30	40.9	40.9	40.9	69	31.5	1	2	270	0.00	30.241 
08:35	41.6	41.6	41.6	68	31.8	1	2	270	0.00	30.241 
08:40	42.3	42.3	42.3	68	32.5	1	2	292	0.00	30.241 
08:45	42.6	42.6	42.6	67	32.4	1	2	292	0.00	30.233 
08:50	42.8	42.8	42.8	67	32.6	1	2	45	0.00	30.233 
08:55	43.2	43.2	43.2	66	32.6	1	4	45	0.00	30.233 
09:00	43.8	43.8	43.8	67	33.6	0	3	90	0.00	30.237 
09:05	44.2	44.2	44.2	67	33.9	0	1	90	0.00	30.237 
09:10	44.8	44.8	44.8	66	34.1	0	2	90	0.00	30.237 
09:15	45.5	45.5	45.5	63	33.6	1	2	90	0.00	30.240 
09:20	46.1	46.1	46.1	61	33.4	1	4	315	0.00	30.240 
09:25	46.5	46.5	46.5	65	35.4	1	2	90	0.00	30.240 
09:30	47.3	47.3	47.3	62	34.9	1	3	0	0.00	30.238 
09:35	48.3	48.3	48.3	58	34.2	1	3	45	0.00	30.238 
09:40	48.9	48.9	48.9	59	35.2	1	4	112	0.00	30.238 
09:45	49.2	49.2	49.2	56	34.2	2	5	90	0.00	30.230 
09:50	49.6	49.6	49.6	55	34.1	2	4	112	0.00	30.230 
09:55	50.1	50.1	50.1	56	35.0	1	5	270	0.00	30.230 
10:00	50.7	50.7	50.7	56	35.6	1	3	270	0.00	30.227 
10:05	51.1	51.1	51.1	53	34.6	1	5	338	0.00	30.227 
10:10	51.4	51.4	51.4	55	35.8	1	3	248	0.00	30.227 
10:15	52.0	52.0	52.0	55	36.3	2	6	248	0.00	30.236 
10:20	52.5	52.5	52.5	50	34.4	2	7	248	0.00	30.236 
10:25	53.2	53.2	53.2	49	34.5	2	5	90	0.00	30.236 
10:30	53.6	53.6	53.6	50	35.4	1	4	90	0.00	30.229 
10:35	53.5	53.5	53.5	50	35.3	3	7	270	0.00	30.229 
10:40	54.2	54.2	54.2	47	34.4	2	5	90	0.00	30.229 
10:45	54.2	54.2	54.2	45	33.3	3	7	248	0.00	30.223 
10:50	54.8	54.8	54.8	46	34.4	3	5	90	0.00	30.223 
10:55	55.4	55.4	55.4	44	33.9	2	6	90	0.00	30.223 
11:00	55.0	55.0	55.0	46	34.6	3	6	248	0.00	30.223 
11:05	55.4	55.4	55.4	45	34.4	2	5	248	0.00	30.223 
11:10	56.0	56.0	56.0	45	35.0	1	5	270	0.00	30.223 
11:15	55.9	55.9	55.9	42	33.1	3	7	248	0.00	30.225 
11:20	56.0	56.0	56.0	44	34.4	2	5	248	0.00	30.225 
11:25	56.5	56.5	56.5	44	34.9	2	5	248	0.00	30.225 
11:30	57.2	57.2	57.2	41	33.7	2	7	248	0.00	30.222 
11:35	57.6	57.6	57.6	42	34.7	3	6	90	0.00	30.222 
11:40	58.1	58.1	58.1	43	35.7	2	6	112	0.00	30.222 
11:45	58.3	58.3	58.3	42	35.3	3	6	90	0.00	30.222 
11:50	57.6	57.6	57.6	39	32.8	2	6	270	0.00	30.222 
11:55	58.3	58.3	58.3	41	34.7	2	9	248	0.00	30.222 
12:00	58.9	58.9	58.9	40	34.6	2	4	248	0.00	30.218 
12:05	58.7	58.7	58.7	39	33.8	2	6	248	0.00	30.218 
12:10	59.2	59.2	59.2	41	35.5	2	7	248	0.00	30.218 
12:15	59.3	59.3	59.3	38	33.7	3	6	90	0.00	30.217 
12:20	59.5	59.5	59.5	36	32.5	2	4	90	0.00	30.217 
12:25	59.8	59.8	59.8	37	33.5	2	6	90	0.00	30.217 
12:30	60.1	60.1	60.1	39	35.1	2	5	90	0.00	30.208 
12:35	59.9	59.9	59.9	40	35.5	2	7	248	0.00	30.208 
12:40	59.8	59.8	59.8	39	34.8	3	14	248	0.00	30.208 
12:45	60.2	60.2	60.2	36	33.1	3	6	90	0.00	30.204 
12:50	60.2	60.2	60.2	35	32.4	2	5	90	0.00	30.204 
12:55	60.7	60.7	60.7	38	34.9	2	4	248	0.00	30.204 
13:00	60.9	60.9	60.9	35	33.1	3	5	90	0.00	30.193 
13:05	61.2	61.2	61.2	35	33.3	2	5	270	0.00	30.193 
13:10	61.3	61.3	61.3	39	36.1	2	7	45	0.00	30.193 
13:15	61.2	61.2	61.2	39	36.0	3	8	90	0.00	30.192 
13:20	61.2	61.2	61.2	37	34.7	1	4	90	0.00	30.192 
13:25	61.6	61.6	61.6	35	33.7	2	5	22	0.00	30.192 
13:30	61.6	61.6	61.6	37	35.1	2	6	90	0.00	30.188 
13:35	61.8	61.8	61.8	31	30.8	3	6	248	0.00	30.188 
13:40	61.5	61.5	61.5	33	32.1	2	5	248	0.00	30.188 
13:45	62.0	62.0	62.0	40	37.4	3	6	315	0.00	30.184 
13:50	62.0	62.0	62.0	31	31.0	2	6	270	0.00	30.184 
13:55	62.0	62.0	62.0	36	34.7	3	9	248	0.00	30.184 
14:00	62.4	62.4	62.4	34	33.7	2	6	270	0.00	30.176 
14:05	62.1	62.1	62.1	31	31.1	2	6	225	0.00	30.176 
14:10	62.4	62.4	62.4	33	32.9	2	6	112	0.00	30.176 
14:15	62.9	62.9	62.9	33	33.4	3	6	248	0.00	30.173 
14:20	62.6	62.6	62.6	33	33.1	3	6	248	0.00	30.173 
14:25	62.9	62.9	62.9	32	32.6	3	6	270	0.00	30.173 
14:30	63.1	63.1	63.1	34	34.3	3	6	90	0.00	30.170 
14:35	62.9	62.9	62.9	34	34.1	3	10	90	0.00	30.170 
14:40	63.1	63.1	63.1	32	32.8	2	6	90	0.00	30.170 
14:45	63.5	63.5	63.5	33	33.9	3	6	248	0.00	30.163 
14:50	64.0	64.0	64.0	33	34.3	2	6	248	0.00	30.163 
14:55	64.0	64.0	64.0	32	33.5	2	10	270	0.00	30.163 
15:00	64.0	64.0	64.0	31	32.8	3	6	248	0.00	30.156 
15:05	64.0	64.0	64.0	30	31.9	2	5	90	0.00	30.156 
15:10	64.0	64.0	64.0	35	35.8	2	7	90	0.00	30.156 
15:15	64.0	64.0	64.0	32	33.5	3	7	270	0.00	30.151 
15:20	64.3	64.3	64.3	29	31.4	2	4	112	0.00	30.151 
15:25	64.2	64.2	64.2	27	29.5	2	4	90	0.00	30.151 
15:30	64.0	64.0	64.0	32	33.5	3	7	90	0.00	30.142 
15:35	64.3	64.3	64.3	36	36.8	2	5	90	0.00	30.142 
15:40	64.2	64.2	64.2	33	34.5	4	10	90	0.00	30.142 
15:45	64.0	64.0	64.0	32	33.5	2	4	68	0.00	30.140 
15:50	64.3	64.3	64.3	27	29.6	3	11	248	0.00	30.140 
15:55	64.7	64.7	64.7	30	32.5	3	7	68	0.00	30.140 
16:00	64.5	64.5	64.5	29	31.5	2	5	112	0.00	30.136 
16:05	64.8	64.8	64.8	30	32.6	2	4	90	0.00	30.136 
16:10	65.2	65.2	65.2	28	31.3	3	11	90	0.00	30.136 
16:15	64.8	64.8	64.8	29	31.8	3	6	90	0.00	30.126 
16:20	64.8	64.8	64.8	27	30.0	2	6	112	0.00	30.126 
16:25	64.7	64.7	64.7	31	33.4	2	6	45	0.00	30.126 
16:30	64.7	64.7	64.7	28	30.8	4	10	270	0.00	30.126 
16:35	65.0	65.0	65.0	30	32.8	2	4	292	0.00	30.126 
16:40	65.2	65.2	65.2	27	30.4	3	5	90	0.00	30.126 
16:45	65.5	65.5	65.5	32	34.9	1	4	22	0.00	30.125 
16:50	65.5	65.5	65.5	27	30.6	2	5	248	0.00	30.125 
16:55	65.5	65.5	65.5	29	32.4	2	6	248	0.00	30.125 
17:00	65.6	65.6	65.6	26	29.8	3	7	248	0.00	30.117 
17:05	65.6	65.6	65.6	25	28.8	4	9	270	0.00	30.117 
17:10	65.6	65.6	65.6	28	31.6	2	5	248	0.00	30.117 
17:15	65.6	65.6	65.6	27	30.7	2	5	248	0.00	30.113 
17:20	65.6	65.6	65.6	28	31.6	2	7	270	0.00	30.113 
17:25	65.6	65.6	65.6	29	32.5	3	9	248	0.00	30.113 
17:30	65.5	65.5	65.5	29	32.4	2	6	45	0.00	30.113 
17:35	65.3	65.3	65.3	28	31.4	2	5	90	0.00	30.113 
17:40	65.5	65.5	65.5	28	31.5	2	4	135	0.00	30.113 
17:45	65.2	65.2	65.2	31	33.8	2	4	315	0.00	30.111 
17:50	65.5	65.5	65.5	30	33.2	1	3	248	0.00	30.111 
17:55	65.5	65.5	65.5	29	32.4	2	6	315	0.00	30.111 
18:00	65.2	65.2	65.2	30	33.0	1	5	270	0.00	30.109 
18:05	65.3	65.3	65.3	30	33.1	1	3	22	0.00	30.109 
18:10	65.0	65.0	65.0	28	31.1	3	11	90	0.00	30.109 
18:15	64.8	64.8	64.8	30	32.6	3	5	90	0.00	30.106 
18:20	64.7	64.7	64.7	28	30.8	2	9	68	0.00	30.106 
18:25	64.7	64.7	64.7	27	29.9	2	7	22	0.00	30.106 
18:30	64.5	64.5	64.5	29	31.5	2	6	270	0.00	30.109 
18:35	64.2	64.2	64.2	29	31.3	1	5	22	0.00	30.109 
18:40	64.2	64.2	64.2	30	32.1	1	5	112	0.00	30.109 
18:45	64.2	64.2	64.2	27	29.5	2	5	90	0.00	30.111 
18:50	64.0	64.0	64.0	28	30.2	2	5	248	0.00	30.111 
18:55	63.7	63.7	63.7	29	30.8	2	7	68	0.00	30.111 
19:00	63.5	63.5	63.5	28	29.8	2	5	90	0.00	30.111 
19:05	63.4	63.4	63.4	30	31.4	1	6	338	0.00	30.111 
19:10	63.2	63.2	63.2	29	30.4	2	5	90	0.00	30.111 
19:15	63.1	63.1	63.1	31	32.0	2	7	202	0.00	30.109 
19:20	62.7	62.7	62.7	31	31.6	1	5	68	0.00	30.109 
19:25	62.7	62.7	62.7	29	30.0	2	4	112	0.00	30.109 
19:30	62.7	62.7	62.7	28	29.1	2	6	112	0.00	30.106 
19:35	62.7	62.7	62.7	31	31.6	1	3	112	0.00	30.106 
19:40	62.4	62.4	62.4	31	31.4	1	2	112	0.00	30.106 
19:45	62.0	62.0	62.0	31	31.0	1	2	112	0.00	30.104 
19:50	61.5	61.5	61.5	33	32.1	0	1	112	0.00	30.104 
19:55	61.0	61.0	61.0	34	32.4	0	2	112	0.00	30.104 
20:00	60.5	60.5	60.5	34	32.0	0	1	112	0.00	30.108 
20:05	60.2	60.2	60.2	35	32.4	0	2	112	0.00	30.108 
20:10	59.9	59.9	59.9	34	31.5	0	1	112	0.00	30.108 
20:15	59.8	59.8	59.8	34	31.4	0	1	112	0.00	30.101 
20:20	59.6	59.6	59.6	34	31.2	0	1	112	0.00	30.101 
20:25	59.2	59.2	59.2	36	32.3	0	0	---	0.00	30.101 
20:30	58.6	58.6	58.6	37	32.4	0	0	---	0.00	30.104 
20:35	57.8	57.8	57.8	37	31.7	0	0	---	0.00	30.104 
20:40	57.0	57.0	57.0	41	33.5	0	0	---	0.00	30.104 
20:45	56.3	56.3	56.3	40	32.3	0	0	---	0.00	30.107 
20:50	55.4	55.4	55.4	41	32.1	0	0	---	0.00	30.107 
20:55	54.7	54.7	54.7	42	32.1	0	0	---	0.00	30.107 
21:00	54.1	54.1	54.1	43	32.1	0	0	---	0.00	30.113 
21:05	53.5	53.5	53.5	44	32.1	0	0	---	0.00	30.113 
21:10	53.1	53.1	53.1	46	32.9	0	0	---	0.00	30.113 
21:15	52.6	52.6	52.6	46	32.4	0	0	---	0.00	30.109 
21:20	52.0	52.0	52.0	48	32.9	0	0	---	0.00	30.109 
21:25	51.6	51.6	51.6	49	33.1	0	0	---	0.00	30.109 
21:30	51.0	51.0	51.0	50	33.0	0	0	---	0.00	30.114 
21:35	50.5	50.5	50.5	51	33.1	0	0	---	0.00	30.114 
21:40	50.1	50.1	50.1	52	33.2	0	0	---	0.00	30.114 
21:45	49.8	49.8	49.8	53	33.4	0	0	---	0.00	30.120 
21:50	49.4	49.4	49.4	53	33.0	0	0	---	0.00	30.120 
21:55	48.9	48.9	48.9	54	33.0	0	0	---	0.00	30.120 
22:00	48.6	48.6	48.6	55	33.2	0	0	---	0.00	30.123 
22:05	48.6	48.6	48.6	55	33.2	0	0	---	0.00	30.123 
22:10	48.9	48.9	48.9	57	34.3	0	0	---	0.00	30.123 
22:15	48.9	48.9	48.9	57	34.3	0	0	---	0.00	30.120 
22:20	48.8	48.8	48.8	58	34.7	0	0	---	0.00	30.120 
22:25	48.5	48.5	48.5	58	34.4	0	0	---	0.00	30.120 
22:30	48.2	48.2	48.2	59	34.6	0	0	---	0.00	30.122 
22:35	47.9	47.9	47.9	60	34.7	0	0	---	0.00	30.122 
22:40	47.4	47.4	47.4	60	34.2	0	0	---	0.00	30.122 
22:45	47.0	47.0	47.0	61	34.3	0	0	---	0.00	30.121 
22:50	46.7	46.7	46.7	62	34.4	0	0	---	0.00	30.121 
22:55	46.5	46.5	46.5	61	33.8	0	0	---	0.00	30.121 
23:00	46.4	46.4	46.4	61	33.7	0	0	---	0.00	30.123 
23:05	46.2	46.2	46.2	61	33.5	0	0	---	0.00	30.123 
23:10	46.0	46.0	46.0	62	33.7	0	0	---	0.00	30.123 
23:15	45.7	45.7	45.7	62	33.4	0	0	---	0.00	30.122 
23:20	45.4	45.4	45.4	62	33.2	0	0	---	0.00	30.122 
23:25	45.2	45.2	45.2	63	33.4	0	0	---	0.00	30.122 
23:30	45.1	45.1	45.1	63	33.3	0	0	---	0.00	30.123 
23:35	45.1	45.1	45.1	68	35.2	0	0	---	0.00	30.123 
23:40	44.9	44.9	44.9	68	35.0	0	0	---	0.00	30.123 
23:45	44.8	44.8	44.8	68	34.9	0	0	---	0.00	30.124 
23:50	44.6	44.6	44.6	71	35.8	0	0	---	0.00	30.124 
23:55	44.3	44.3	44.3	72	35.9	0	0	---	0.00	30.124 

CoCoRaHS
IN-AL-39
A2 Web Hosting
Creative Commons License
GoDaddy
Look for:

loaded 2017-10-16 20:24:29 • last modified 2010-11-18 10:43:29
Privacy PolicyDisclaimer
• wx.awcolley.com is powered by PmWiki v.2002016 •
• all content (unless otherwise noted) © 2017 A W Colley